createdAt,value
2018-08-13T00:02:12.041Z,76.40
2018-08-13T00:04:43.665Z,76.60
2018-08-13T00:07:16.357Z,76.20
2018-08-13T00:09:47.573Z,76.00
2018-08-13T00:12:19.128Z,76.20
2018-08-13T00:14:51.635Z,76.60
2018-08-13T00:17:23.667Z,76.10
2018-08-13T00:19:54.992Z,76.60
2018-08-13T00:22:26.860Z,76.30
2018-08-13T00:24:59.240Z,75.70
2018-08-13T00:27:31.384Z,76.60
2018-08-13T00:30:03.654Z,76.40
2018-08-13T00:32:35.771Z,76.30
2018-08-13T00:35:10.722Z,76.10
2018-08-13T00:37:42.058Z,75.70
2018-08-13T00:40:14.435Z,77.20
2018-08-13T00:42:46.273Z,76.20
2018-08-13T00:45:18.519Z,76.50
2018-08-13T00:47:49.808Z,75.90
2018-08-13T00:50:21.184Z,76.10
2018-08-13T00:52:52.453Z,74.10
2018-08-13T00:55:24.315Z,73.20
2018-08-13T00:57:56.081Z,72.40
2018-08-13T01:00:28.061Z,72.10
2018-08-13T01:02:59.718Z,71.70
2018-08-13T01:05:31.428Z,71.70
2018-08-13T01:08:03.438Z,71.80
2018-08-13T01:10:35.094Z,71.90
2018-08-13T01:13:07.345Z,71.80
2018-08-13T01:15:39.037Z,72.20
2018-08-13T01:18:10.602Z,72.30
2018-08-13T01:20:42.392Z,72.70
2018-08-13T01:23:29.193Z,72.90
2018-08-13T01:26:01.276Z,73.40
2018-08-13T01:28:33.232Z,73.80
2018-08-13T01:31:09.704Z,74.10
2018-08-13T01:33:41.947Z,74.40
2018-08-13T01:36:13.841Z,74.60
2018-08-13T01:38:46.291Z,74.80
2018-08-13T01:41:18.122Z,75.10
2018-08-13T01:43:49.232Z,75.50
2018-08-13T01:46:20.459Z,76.00
2018-08-13T01:48:51.545Z,76.20
2018-08-13T01:51:23.134Z,76.60
2018-08-13T01:54:05.426Z,76.70
2018-08-13T01:56:37.194Z,76.50
2018-08-13T01:59:08.948Z,77.00
2018-08-13T02:01:41.764Z,77.70
2018-08-13T02:04:13.139Z,78.40
2018-08-13T02:06:44.939Z,78.70
2018-08-13T02:09:16.413Z,79.00
2018-08-13T02:11:47.786Z,78.70
2018-08-13T02:14:19.652Z,78.40
2018-08-13T02:16:52.128Z,78.70
2018-08-13T02:19:24.396Z,78.60
2018-08-13T02:21:56.053Z,78.70
2018-08-13T02:24:28.961Z,78.40
2018-08-13T02:27:00.461Z,77.90
2018-08-13T02:29:32.599Z,77.70
2018-08-13T02:32:04.032Z,77.40
2018-08-13T02:34:43.387Z,78.70
2018-08-13T02:37:15.620Z,78.10
2018-08-13T02:39:47.666Z,76.80
2018-08-13T02:42:19.800Z,76.40
2018-08-13T02:44:52.273Z,76.80
2018-08-13T02:47:24.132Z,77.60
2018-08-13T02:49:55.343Z,78.20
2018-08-13T02:52:28.866Z,78.10
2018-08-13T02:55:00.238Z,76.70
2018-08-13T02:57:31.917Z,77.10
2018-08-13T03:00:03.254Z,76.50
2018-08-13T03:02:34.854Z,76.50
2018-08-13T03:05:07.553Z,76.60
2018-08-13T03:07:39.707Z,76.30
2018-08-13T03:10:13.578Z,76.60
2018-08-13T03:12:46.335Z,77.20
2018-08-13T03:15:17.938Z,77.00
2018-08-13T03:17:49.605Z,77.10
2018-08-13T03:20:21.307Z,77.00
2018-08-13T03:22:58.376Z,77.10
2018-08-13T03:25:30.045Z,77.30
2018-08-13T03:28:06.921Z,77.50
2018-08-13T03:30:38.570Z,77.00
2018-08-13T03:33:10.451Z,76.00
2018-08-13T03:35:42.806Z,75.10
2018-08-13T03:38:15.182Z,75.20
2018-08-13T03:40:47.228Z,74.00
2018-08-13T03:43:18.197Z,73.10
2018-08-13T03:45:49.629Z,72.80
2018-08-13T03:48:20.941Z,72.20
2018-08-13T03:50:56.664Z,71.70
2018-08-13T03:53:27.643Z,71.70
2018-08-13T03:55:59.565Z,71.50
2018-08-13T03:58:30.978Z,71.30
2018-08-13T04:01:02.931Z,70.70
2018-08-13T04:03:34.691Z,70.30
2018-08-13T04:06:06.764Z,70.00
2018-08-13T04:08:38.484Z,69.90
2018-08-13T04:11:09.664Z,69.80
2018-08-13T04:13:41.395Z,70.10
2018-08-13T04:16:13.498Z,70.80
2018-08-13T04:18:45.159Z,72.80
2018-08-13T04:21:16.921Z,76.40
2018-08-13T04:23:48.753Z,78.50
2018-08-13T04:26:20.511Z,81.00
2018-08-13T04:28:52.396Z,82.00
2018-08-13T04:31:24.174Z,84.50
2018-08-13T04:33:56.186Z,86.10
2018-08-13T04:36:27.919Z,85.70
2018-08-13T04:38:59.790Z,88.10
2018-08-13T04:41:31.386Z,89.10
2018-08-13T04:44:08.836Z,90.10
2018-08-13T04:46:40.759Z,89.60
2018-08-13T04:49:12.874Z,90.30
2018-08-13T04:51:44.704Z,90.40
2018-08-13T04:54:16.896Z,89.80
2018-08-13T04:56:48.334Z,91.90
2018-08-13T04:59:21.456Z,91.10
2018-08-13T05:01:57.925Z,92.00
2018-08-13T05:04:30.146Z,92.70
2018-08-13T05:07:02.337Z,93.50
2018-08-13T05:09:33.899Z,94.60
2018-08-13T05:12:04.903Z,94.70
2018-08-13T05:14:36.765Z,95.10
2018-08-13T05:17:08.303Z,95.00
2018-08-13T05:19:40.191Z,95.70
2018-08-13T05:22:11.905Z,95.80
2018-08-13T05:24:48.127Z,95.40
2018-08-13T05:27:20.169Z,95.60
2018-08-13T05:29:51.853Z,94.70
2018-08-13T05:32:22.980Z,94.70
2018-08-13T05:34:57.372Z,95.70
2018-08-13T05:37:28.985Z,95.40
2018-08-13T05:40:02.849Z,95.20
2018-08-13T05:42:32.013Z,95.50
2018-08-13T05:45:03.417Z,95.10
2018-08-13T05:47:32.411Z,94.80
2018-08-13T05:50:01.639Z,94.60
2018-08-13T05:52:30.717Z,94.40
2018-08-13T05:55:00.163Z,94.50
2018-08-13T05:57:29.312Z,94.90
2018-08-13T05:59:58.593Z,95.40
2018-08-13T06:02:27.780Z,95.90
2018-08-13T06:04:58.042Z,96.00
2018-08-13T06:07:27.231Z,96.50
2018-08-13T06:09:57.221Z,96.20
2018-08-13T06:12:26.315Z,96.00
2018-08-13T06:14:55.476Z,96.00
2018-08-13T06:17:37.546Z,94.90
2018-08-13T06:20:08.048Z,95.40
2018-08-13T06:22:37.246Z,96.20
2018-08-13T06:25:07.438Z,97.20
2018-08-13T06:27:41.767Z,95.40
2018-08-13T06:30:13.342Z,94.80
2018-08-13T06:32:44.495Z,94.90
2018-08-13T06:35:14.613Z,96.10
2018-08-13T06:37:45.435Z,96.40
2018-08-13T06:40:15.049Z,96.40
2018-08-13T06:42:44.952Z,97.00
2018-08-13T06:45:14.465Z,97.00
2018-08-13T06:47:43.928Z,95.80
2018-08-13T06:50:14.250Z,96.40
2018-08-13T06:52:44.067Z,95.70
2018-08-13T06:55:13.567Z,95.80
2018-08-13T06:57:42.939Z,95.30
2018-08-13T07:00:15.235Z,94.40
2018-08-13T07:02:45.147Z,95.20
2018-08-13T07:05:14.995Z,94.70
2018-08-13T07:07:44.229Z,94.10
2018-08-13T07:10:14.692Z,94.50
2018-08-13T07:12:46.284Z,95.30
2018-08-13T07:15:16.485Z,93.90
2018-08-13T07:17:45.965Z,93.00
2018-08-13T07:20:17.022Z,94.00
2018-08-13T07:22:47.651Z,93.50
2018-08-13T07:25:16.963Z,92.90
2018-08-13T07:27:46.361Z,93.20
2018-08-13T07:30:16.237Z,92.40
2018-08-13T07:32:51.629Z,92.20
2018-08-13T07:35:21.576Z,92.80
2018-08-13T07:37:50.707Z,92.40
2018-08-13T07:40:19.912Z,92.60
2018-08-13T07:42:49.967Z,92.60
2018-08-13T07:45:19.234Z,92.40
2018-08-13T07:47:48.426Z,92.30
2018-08-13T07:50:17.859Z,91.90
2018-08-13T07:52:47.224Z,92.00
2018-08-13T07:55:16.284Z,91.00
2018-08-13T07:57:45.377Z,91.30
2018-08-13T08:00:17.179Z,91.10
2018-08-13T08:02:46.876Z,91.60
2018-08-13T08:05:16.905Z,91.70
2018-08-13T08:07:46.339Z,91.50
2018-08-13T08:10:16.794Z,91.20
2018-08-13T08:12:46.275Z,90.80
2018-08-13T08:15:17.971Z,90.80
2018-08-13T08:17:47.054Z,90.70
2018-08-13T08:20:16.351Z,90.40
2018-08-13T08:22:45.469Z,89.80
2018-08-13T08:25:19.208Z,89.90
2018-08-13T08:27:48.719Z,89.40
2018-08-13T08:30:19.286Z,89.40
2018-08-13T08:32:48.686Z,89.40
2018-08-13T08:35:18.893Z,89.20
2018-08-13T08:37:48.368Z,89.40
2018-08-13T08:40:20.037Z,90.30
2018-08-13T08:42:51.758Z,92.20
2018-08-13T08:45:23.396Z,92.00
2018-08-13T08:47:53.962Z,92.10
2018-08-13T08:50:22.915Z,91.60
2018-08-13T08:52:54.285Z,91.30
2018-08-13T08:55:23.498Z,91.20
2018-08-13T08:57:52.956Z,89.80
2018-08-13T09:00:23.439Z,89.40
2018-08-13T09:02:52.428Z,87.80
2018-08-13T09:05:21.482Z,87.90
2018-08-13T09:07:50.449Z,87.30
2018-08-13T09:10:19.529Z,87.10
2018-08-13T09:12:48.578Z,87.00
2018-08-13T09:15:18.484Z,86.50
2018-08-13T09:17:59.442Z,86.50
2018-08-13T09:20:39.140Z,86.10
2018-08-13T09:23:19.047Z,85.70
2018-08-13T09:25:58.982Z,85.60
2018-08-13T09:28:38.752Z,85.70
2018-08-13T09:31:20.030Z,84.00
2018-08-13T09:33:59.785Z,83.80
2018-08-13T09:36:28.500Z,83.40
2018-08-13T09:38:59.303Z,83.00
2018-08-13T09:41:28.131Z,83.00
2018-08-13T09:43:56.901Z,83.10
2018-08-13T09:46:32.075Z,83.70
2018-08-13T09:49:01.203Z,83.20
2018-08-13T09:51:30.559Z,83.00
2018-08-13T09:53:59.675Z,82.80
2018-08-13T09:56:28.632Z,82.80
2018-08-13T09:58:57.434Z,82.80
2018-08-13T10:01:26.312Z,82.10
2018-08-13T10:03:55.214Z,82.70
2018-08-13T10:06:24.168Z,83.20
2018-08-13T10:08:53.068Z,83.40
2018-08-13T10:11:33.466Z,83.90
2018-08-13T10:14:02.378Z,81.70
2018-08-13T10:16:33.028Z,78.20
2018-08-13T10:19:02.158Z,77.10
2018-08-13T10:21:35.254Z,76.10
2018-08-13T10:24:04.297Z,74.50
2018-08-13T10:26:35.365Z,74.90
2018-08-13T10:29:05.154Z,74.60
2018-08-13T10:31:35.145Z,74.30
2018-08-13T10:34:04.102Z,73.40
2018-08-13T10:36:35.732Z,73.10
2018-08-13T10:39:06.452Z,74.00
2018-08-13T10:41:36.046Z,74.80
2018-08-13T10:44:06.052Z,74.60
2018-08-13T10:46:37.076Z,73.00
2018-08-13T10:49:06.990Z,72.00
2018-08-13T10:51:36.633Z,71.90
2018-08-13T10:54:05.420Z,71.90
2018-08-13T10:56:35.284Z,74.50
2018-08-13T10:59:15.498Z,74.90
2018-08-13T11:01:44.411Z,74.60
2018-08-13T11:04:13.297Z,75.20
2018-08-13T11:06:43.120Z,76.10
2018-08-13T11:09:12.310Z,76.10
2018-08-13T11:11:42.613Z,76.20
2018-08-13T11:14:11.645Z,76.10
2018-08-13T11:16:40.505Z,76.40
2018-08-13T11:19:14.659Z,76.70
2018-08-13T11:21:43.645Z,76.80
2018-08-13T11:24:12.448Z,77.60
2018-08-13T11:26:41.355Z,78.10
2018-08-13T11:29:22.002Z,78.40
2018-08-13T11:31:50.767Z,78.40
2018-08-13T11:34:19.561Z,77.80
2018-08-13T11:36:48.474Z,76.10
2018-08-13T11:39:17.338Z,75.90
2018-08-13T11:41:46.828Z,72.00
2018-08-13T11:44:15.594Z,69.50
2018-08-13T11:46:49.906Z,67.30
2018-08-13T11:49:18.740Z,69.60
2018-08-13T11:51:57.217Z,71.80
2018-08-13T11:54:26.025Z,73.50
2018-08-13T11:56:54.803Z,75.20
2018-08-13T11:59:23.606Z,76.50
2018-08-13T12:01:53.589Z,78.40
2018-08-13T12:04:23.212Z,80.60
2018-08-13T12:06:52.007Z,81.30
2018-08-13T12:09:20.938Z,81.70
2018-08-13T12:11:49.873Z,82.10
2018-08-13T12:26:00.951Z,87.80
2018-08-13T12:28:32.742Z,89.80
2018-08-13T12:31:04.849Z,91.90
2018-08-13T12:33:34.920Z,93.50
2018-08-13T12:36:05.567Z,95.00
2018-08-13T12:38:36.137Z,94.10
2018-08-13T12:41:07.537Z,94.70
2018-08-13T12:43:37.998Z,94.40
2018-08-13T12:46:08.355Z,94.50
2018-08-13T12:48:39.594Z,93.60
2018-08-13T12:51:09.696Z,91.80
2018-08-13T12:53:40.034Z,89.80
2018-08-13T12:56:11.513Z,88.00
2018-08-13T12:58:41.654Z,85.00
2018-08-13T13:01:12.110Z,84.30
2018-08-13T13:03:42.337Z,84.50
2018-08-13T13:06:12.087Z,83.30
2018-08-13T13:08:42.049Z,84.50
2018-08-13T13:11:13.398Z,84.10
2018-08-13T13:13:44.062Z,84.50
2018-08-13T13:16:16.948Z,79.20
2018-08-13T13:18:47.204Z,78.80
2018-08-13T13:21:18.162Z,76.50
2018-08-13T13:23:48.278Z,75.00
2018-08-13T13:26:19.254Z,75.20
2018-08-13T13:28:50.190Z,74.10
2018-08-13T13:31:20.802Z,75.00
2018-08-13T13:33:50.855Z,74.60
2018-08-13T13:36:21.696Z,72.10
2018-08-13T13:38:51.834Z,73.40
2018-08-13T13:41:22.302Z,74.30
2018-08-13T13:43:52.148Z,71.70
2018-08-13T13:46:23.577Z,71.80
2018-08-13T13:48:53.396Z,73.80
2018-08-13T13:51:24.137Z,75.30
2018-08-13T13:53:54.072Z,77.30
2018-08-13T13:56:24.683Z,79.00
2018-08-13T13:58:54.482Z,80.40
2018-08-13T14:01:25.329Z,94.70
2018-08-13T14:03:56.355Z,96.40
2018-08-13T14:06:27.159Z,97.00
2018-08-13T14:08:57.044Z,98.40
2018-08-13T14:11:26.993Z,99.10
2018-08-13T14:13:56.577Z,97.50
2018-08-13T14:16:27.104Z,99.70
2018-08-13T14:18:57.312Z,99.60
2018-08-13T14:21:27.631Z,99.90
2018-08-13T14:23:58.615Z,99.80
2018-08-13T14:26:28.823Z,98.20
2018-08-13T14:28:59.580Z,98.80
2018-08-13T14:31:30.754Z,98.60
2018-08-13T14:34:00.984Z,99.20
2018-08-13T14:36:30.712Z,96.40
2018-08-13T14:39:00.866Z,96.40
2018-08-13T14:41:30.474Z,95.90
2018-08-13T14:44:11.247Z,96.20
2018-08-13T14:46:41.086Z,96.60
2018-08-13T14:49:17.992Z,95.90
2018-08-13T14:51:47.370Z,96.80
2018-08-13T14:54:19.300Z,95.00
2018-08-13T14:56:49.092Z,95.90
2018-08-13T14:59:24.554Z,95.00
2018-08-13T15:01:55.556Z,94.60
2018-08-13T15:04:25.802Z,94.10
2018-08-13T15:06:55.486Z,93.00
2018-08-13T15:09:25.500Z,94.20
2018-08-13T15:11:55.289Z,93.50
2018-08-13T15:14:25.588Z,92.80
2018-08-13T15:16:55.222Z,92.90
2018-08-13T15:19:31.321Z,93.20
2018-08-13T15:22:01.919Z,92.10
2018-08-13T15:24:31.901Z,93.80
2018-08-13T15:27:03.221Z,93.40
2018-08-13T15:29:34.309Z,93.40
2018-08-13T15:32:04.668Z,93.80
2018-08-13T15:34:35.367Z,93.30
2018-08-13T15:37:05.386Z,93.80
2018-08-13T15:39:35.416Z,93.30
2018-08-13T15:59:10.220Z,78.30
2018-08-13T16:01:39.107Z,74.10
2018-08-13T16:04:08.955Z,73.20
2018-08-13T16:06:37.821Z,74.60
2018-08-13T16:09:07.040Z,75.20
2018-08-13T16:11:36.659Z,78.10
2018-08-13T16:14:05.603Z,78.70
2018-08-13T16:16:34.394Z,79.90
2018-08-13T16:19:03.381Z,79.70
2018-08-13T16:21:32.215Z,78.10
2018-08-13T16:24:02.523Z,74.50
2018-08-13T16:26:31.332Z,71.00
2018-08-13T16:29:01.187Z,70.50
2018-08-13T16:31:29.963Z,70.80
2018-08-13T16:33:58.916Z,72.80
2018-08-13T16:36:27.744Z,72.60
2018-08-13T16:38:56.576Z,69.60
2018-08-13T16:41:25.458Z,68.20
2018-08-13T16:43:54.585Z,69.40
2018-08-13T16:46:23.533Z,71.30
2018-08-13T16:48:52.305Z,70.30
2018-08-13T16:51:22.568Z,69.50
2018-08-13T16:53:51.427Z,68.20
2018-08-13T16:56:20.306Z,68.30
2018-08-13T16:58:49.175Z,69.20
2018-08-13T17:01:19.217Z,71.70
2018-08-13T17:03:52.813Z,73.90
2018-08-13T17:06:21.663Z,75.50
2018-08-13T17:08:57.156Z,77.00
2018-08-13T17:11:30.105Z,77.60
2018-08-13T17:13:58.976Z,77.90
2018-08-13T17:16:27.966Z,77.40
2018-08-13T17:18:58.086Z,77.30
2018-08-13T17:21:28.675Z,78.90
2018-08-13T17:23:59.248Z,79.30
2018-08-13T17:26:30.003Z,80.10
2018-08-13T17:29:00.953Z,80.90
2018-08-13T17:31:32.097Z,81.30
2018-08-13T17:34:03.310Z,81.80
2018-08-13T17:36:34.120Z,82.30
2018-08-13T17:39:06.898Z,82.80
2018-08-13T17:41:37.032Z,83.40
2018-08-13T17:44:08.833Z,83.80
2018-08-13T17:46:39.049Z,84.50
2018-08-13T17:49:10.301Z,84.90
2018-08-13T17:51:40.803Z,85.10
2018-08-13T17:54:11.657Z,85.40
2018-08-13T17:56:41.963Z,85.60
2018-08-13T17:59:12.243Z,86.10
2018-08-13T18:01:43.288Z,86.40
2018-08-13T18:04:13.883Z,87.20
2018-08-13T18:06:43.810Z,87.70
2018-08-13T18:09:14.602Z,87.90
2018-08-13T18:11:45.657Z,88.50
2018-08-13T18:14:16.467Z,88.60
2018-08-13T18:16:46.631Z,88.80
2018-08-13T18:19:19.054Z,88.90
2018-08-13T18:21:49.782Z,89.10
2018-08-13T18:24:20.820Z,89.30
2018-08-13T18:26:55.975Z,89.60
2018-08-13T18:29:28.757Z,89.90
2018-08-13T18:32:01.982Z,90.40
2018-08-13T18:34:39.302Z,90.50
2018-08-13T18:37:13.731Z,90.70
2018-08-13T18:39:55.997Z,90.60
2018-08-13T18:42:30.186Z,90.70
2018-08-13T18:45:05.389Z,90.90
2018-08-13T18:47:40.839Z,91.10
2018-08-13T18:50:18.792Z,91.30
2018-08-13T18:52:52.554Z,91.60
2018-08-13T18:55:27.128Z,91.60
2018-08-13T18:58:01.265Z,91.90
2018-08-13T19:00:34.165Z,92.20
2018-08-13T19:03:11.125Z,92.20
2018-08-13T19:05:45.373Z,92.30
2018-08-13T19:08:17.318Z,92.30
2018-08-13T19:10:49.646Z,92.50
2018-08-13T19:13:22.066Z,92.60
2018-08-13T19:15:55.460Z,92.60
2018-08-13T19:18:28.036Z,92.80
2018-08-13T19:21:00.125Z,92.90
2018-08-13T19:23:32.278Z,93.00
2018-08-13T19:26:05.196Z,93.30
2018-08-13T19:28:37.844Z,93.00
2018-08-13T19:31:09.605Z,92.60
2018-08-13T19:33:42.609Z,92.70
2018-08-13T19:36:15.490Z,92.70
2018-08-13T19:38:51.320Z,92.90
2018-08-13T19:41:24.672Z,92.90
2018-08-13T19:43:59.892Z,93.10
2018-08-13T19:46:33.644Z,93.30
2018-08-13T19:49:06.997Z,93.60
2018-08-13T19:51:42.390Z,93.60
2018-08-13T19:54:16.442Z,93.80
2018-08-13T19:56:50.513Z,94.00
2018-08-13T19:59:22.974Z,94.00
2018-08-13T20:01:54.621Z,94.20
2018-08-13T20:04:27.641Z,94.40
2018-08-13T20:07:01.130Z,94.30
2018-08-13T20:09:34.550Z,94.40
2018-08-13T20:12:09.933Z,94.40
2018-08-13T20:14:42.811Z,94.50
2018-08-13T20:17:19.282Z,94.80
2018-08-13T20:19:53.875Z,94.80
2018-08-13T20:22:27.864Z,94.90
2018-08-13T20:25:04.039Z,95.00
2018-08-13T20:27:43.830Z,95.00
2018-08-13T20:30:20.492Z,95.20
2018-08-13T20:32:55.119Z,95.30
2018-08-13T20:35:28.846Z,95.30
2018-08-13T20:38:03.404Z,95.30
2018-08-13T20:40:37.288Z,95.40
2018-08-13T20:43:10.483Z,95.70
2018-08-13T20:45:43.168Z,95.80
2018-08-13T20:48:13.485Z,96.10
2018-08-13T20:50:50.968Z,96.00
2018-08-13T20:53:24.791Z,96.00
2018-08-13T20:56:01.958Z,95.90
2018-08-13T20:58:31.621Z,95.90
2018-08-13T21:01:21.298Z,95.80
2018-08-13T21:03:56.604Z,95.80
2018-08-13T21:06:30.753Z,95.80
2018-08-13T21:09:04.377Z,95.90
2018-08-13T21:11:37.858Z,96.10
2018-08-13T21:14:11.667Z,96.10
2018-08-13T21:16:44.271Z,96.00
2018-08-13T21:19:19.334Z,95.90
2018-08-13T21:21:53.635Z,96.00
2018-08-13T21:24:26.447Z,95.90
2018-08-13T21:27:05.519Z,95.90
2018-08-13T21:29:38.732Z,95.90
2018-08-13T21:32:11.004Z,96.10
2018-08-13T21:34:44.204Z,96.20
2018-08-13T21:37:17.492Z,96.20
2018-08-13T21:39:50.200Z,96.40
2018-08-13T21:42:25.421Z,96.40
2018-08-13T21:44:57.444Z,96.50
2018-08-13T21:47:30.367Z,96.60
2018-08-13T21:50:03.074Z,96.70
2018-08-13T21:52:36.929Z,96.60
2018-08-13T21:55:09.459Z,96.80
2018-08-13T21:57:41.352Z,96.80
2018-08-13T22:00:34.244Z,96.60
2018-08-13T22:03:09.901Z,96.60
2018-08-13T22:05:42.392Z,96.50
2018-08-13T22:08:15.928Z,96.60
2018-08-13T22:10:49.916Z,96.60
2018-08-13T22:13:22.693Z,96.50
2018-08-13T22:15:55.898Z,96.60
2018-08-13T22:18:29.507Z,96.60
2018-08-13T22:21:01.556Z,96.80
2018-08-13T22:23:34.237Z,97.00
2018-08-13T22:26:06.722Z,97.20
2018-08-13T22:28:39.373Z,97.00
2018-08-13T22:31:12.300Z,97.10
2018-08-13T22:33:44.569Z,96.90
2018-08-13T22:36:17.674Z,96.70
2018-08-13T22:38:50.604Z,96.40
2018-08-13T22:41:23.002Z,96.40
2018-08-13T22:43:54.964Z,96.40
2018-08-13T22:46:28.347Z,96.30
2018-08-13T22:49:01.525Z,96.00
2018-08-13T22:51:34.440Z,96.10
2018-08-13T22:54:08.855Z,96.10
2018-08-13T22:56:41.361Z,96.00
2018-08-13T22:59:14.894Z,96.00
2018-08-13T23:01:48.335Z,95.80
2018-08-13T23:04:23.563Z,95.90
2018-08-13T23:06:56.939Z,95.80
2018-08-13T23:09:31.381Z,95.80
2018-08-13T23:12:07.543Z,96.00
2018-08-13T23:14:40.812Z,95.90
2018-08-13T23:17:14.032Z,96.00
2018-08-13T23:19:47.207Z,96.20
2018-08-13T23:22:57.946Z,96.20
2018-08-13T23:25:31.789Z,96.30
2018-08-13T23:28:05.314Z,96.10
2018-08-13T23:30:38.038Z,96.10
2018-08-13T23:33:10.855Z,96.30
2018-08-13T23:35:43.618Z,96.50
2018-08-13T23:38:16.193Z,96.70
2018-08-13T23:40:49.388Z,97.20
2018-08-13T23:43:21.800Z,97.30
2018-08-13T23:45:53.934Z,97.30
2018-08-13T23:48:27.289Z,97.40
2018-08-13T23:50:59.381Z,97.40
2018-08-13T23:53:33.223Z,97.30
2018-08-13T23:56:05.902Z,97.40
2018-08-13T23:58:38.425Z,97.20
